createdAt,value
2022-08-17T00:09:24.902Z,42.78
2022-08-17T00:19:28.323Z,46.45
2022-08-17T00:29:32.671Z,48.03
2022-08-17T00:39:35.670Z,49.28
2022-08-17T00:49:40.002Z,45.88
2022-08-17T01:00:02.792Z,50.40
2022-08-17T01:10:57.656Z,50.53
2022-08-17T01:20:47.841Z,49.05
2022-08-17T01:30:58.619Z,49.25
2022-08-17T01:41:04.781Z,47.30
2022-08-17T01:51:09.090Z,48.28
2022-08-17T02:01:13.106Z,47.65
2022-08-17T02:21:22.722Z,50.90
2022-08-17T02:31:27.074Z,50.38
2022-08-17T02:41:30.551Z,52.47
2022-08-17T02:51:35.340Z,49.00
2022-08-17T03:01:38.673Z,53.35
2022-08-17T03:11:43.201Z,53.50
2022-08-17T03:21:46.120Z,52.70
2022-08-17T03:31:59.358Z,48.53
2022-08-17T03:52:25.698Z,50.47
2022-08-17T04:02:31.653Z,48.70
2022-08-17T04:12:46.103Z,48.05
2022-08-17T04:23:02.103Z,51.58
2022-08-17T04:33:09.702Z,48.92
2022-08-17T04:43:16.126Z,50.08
2022-08-17T04:53:23.166Z,48.63
2022-08-17T05:03:28.402Z,49.47
2022-08-17T05:13:32.802Z,49.40
2022-08-17T05:23:42.874Z,46.03
2022-08-17T05:33:49.518Z,46.28
2022-08-17T05:43:56.194Z,42.97
2022-08-17T05:54:14.117Z,38.92
2022-08-17T06:04:27.087Z,34.30
2022-08-17T06:14:44.374Z,30.83
2022-08-17T06:24:51.640Z,32.35
2022-08-17T06:34:57.480Z,29.02
2022-08-17T06:45:06.253Z,28.67
2022-08-17T06:55:18.677Z,27.88
2022-08-17T07:05:24.274Z,25.35
2022-08-17T07:15:41.886Z,24.27
2022-08-17T07:25:44.960Z,23.60
2022-08-17T07:35:50.299Z,23.40
2022-08-17T07:46:15.322Z,23.02
2022-08-17T07:56:42.504Z,20.58
2022-08-17T08:06:52.919Z,20.80
2022-08-17T08:17:03.587Z,23.42
2022-08-17T08:27:18.525Z,22.63
2022-08-17T08:37:35.792Z,24.90
2022-08-17T08:48:58.258Z,25.38
2022-08-17T08:58:41.685Z,26.83
2022-08-17T09:09:02.162Z,26.67
2022-08-17T09:19:13.291Z,27.42
2022-08-17T09:29:24.401Z,23.70
2022-08-17T09:39:34.538Z,25.13
2022-08-17T09:49:46.541Z,25.38
2022-08-17T10:00:22.373Z,28.52
2022-08-17T10:10:42.885Z,34.42
2022-08-17T10:21:26.762Z,36.42
2022-08-17T10:41:45.745Z,44.70
2022-08-17T10:51:52.958Z,46.38
2022-08-17T11:12:53.789Z,43.13
2022-08-17T11:23:25.930Z,39.83
2022-08-17T11:34:02.169Z,41.25
2022-08-17T11:44:37.841Z,43.63
2022-08-17T11:54:45.644Z,46.22
2022-08-17T12:05:12.371Z,44.75
2022-08-17T12:15:25.082Z,51.95
2022-08-17T12:25:55.430Z,53.50
2022-08-17T12:36:02.830Z,50.92
2022-08-17T12:46:13.117Z,48.03
2022-08-17T12:56:31.561Z,56.95
2022-08-17T13:06:50.954Z,56.72
2022-08-17T13:17:09.663Z,57.03
2022-08-17T13:27:21.530Z,59.35
2022-08-17T13:48:21.538Z,63.92
2022-08-17T13:58:29.044Z,51.78
2022-08-17T14:08:34.169Z,46.70
2022-08-17T14:18:55.820Z,45.70
2022-08-17T14:29:01.699Z,42.58
2022-08-17T14:39:05.492Z,40.30
2022-08-17T14:49:16.153Z,42.80
2022-08-17T14:59:19.427Z,42.50
2022-08-17T15:09:24.610Z,44.27
2022-08-17T15:19:28.868Z,48.88
2022-08-17T15:29:33.455Z,58.45
2022-08-17T15:39:36.596Z,56.35
2022-08-17T15:49:42.315Z,55.40
2022-08-17T15:59:53.102Z,41.58
2022-08-17T16:10:33.966Z,36.75
2022-08-17T16:20:38.517Z,56.07
2022-08-17T16:30:43.088Z,41.30
2022-08-17T16:40:46.159Z,40.83
2022-08-17T16:50:58.546Z,38.67
2022-08-17T17:01:07.961Z,39.75
2022-08-17T17:11:19.262Z,46.28
2022-08-17T17:21:26.586Z,39.80
2022-08-17T17:31:38.329Z,35.85
2022-08-17T17:41:47.635Z,33.67
2022-08-17T17:52:11.126Z,40.67
2022-08-17T18:02:59.321Z,51.30
2022-08-17T18:13:15.850Z,55.00
2022-08-17T18:23:21.353Z,56.42
2022-08-17T18:33:30.080Z,61.58
2022-08-17T18:43:43.848Z,70.97
2022-08-17T18:54:18.519Z,76.90
2022-08-17T19:04:33.991Z,66.07
2022-08-17T19:14:39.308Z,72.45
2022-08-17T19:24:47.676Z,68.10
2022-08-17T19:34:56.082Z,63.88
2022-08-17T19:45:05.447Z,56.60
2022-08-17T19:55:20.964Z,60.20
2022-08-17T20:05:30.185Z,62.97
2022-08-17T20:15:37.790Z,65.15
2022-08-17T20:25:47.198Z,62.50
2022-08-17T20:36:05.414Z,73.40
2022-08-17T20:46:20.517Z,68.60
2022-08-17T20:56:50.557Z,70.88
2022-08-17T21:07:29.195Z,63.90
2022-08-17T21:17:49.866Z,67.63
2022-08-17T21:28:08.282Z,73.95
2022-08-17T21:38:17.070Z,69.70
2022-08-17T21:48:22.787Z,70.03
2022-08-17T21:58:33.276Z,72.25
2022-08-17T22:08:37.013Z,73.85
2022-08-17T22:18:42.294Z,76.37
2022-08-17T22:28:48.885Z,78.18
2022-08-17T22:38:54.714Z,73.00
2022-08-17T22:49:00.421Z,68.03
2022-08-17T22:59:20.878Z,81.05
2022-08-17T23:09:23.926Z,75.80
2022-08-17T23:19:31.407Z,74.45
2022-08-17T23:29:35.622Z,61.50
2022-08-17T23:39:40.506Z,70.35
2022-08-17T23:49:43.476Z,64.75
2022-08-17T23:59:50.496Z,67.57
